Time;durP1;ratioP1;P1;durP2;ratioP2;P2;SDS_P1;SDS_P2;PMS_P1;PMS_P2;Temp;Humidity;BMP_temperature;BMP_pressure;BME280_temperature;BME280_humidity;BME280_pressure;Samples;Min_cycle;Max_cycle;Signal;HPM_P1;HPM_P2
2022/06/29 00:01:46;;;;;;;;;;;;;;;18.10;28.24;95577.97;5042127;28;20077;-68
2022/06/29 00:04:11;;;;;;;;;;;;;;;18.05;28.47;95584.88;5042091;28;19979;-68
2022/06/29 00:06:36;;;;;;;;;;;;;;;18.02;28.99;95585.31;5043585;28;20062;-68
2022/06/29 00:09:01;;;;;;;;;;;;;;;17.96;28.90;95594.31;5045290;28;20013;-69
2022/06/29 00:11:26;;;;;;;;;;;;;;;17.96;29.36;95577.31;5044973;28;20637;-69
2022/06/29 00:13:52;;;;;;;;;;;;;;;17.94;29.50;95576.75;5043174;28;19976;-69
2022/06/29 00:16:17;;;;;;;;;;;;;;;17.86;29.41;95577.84;5041698;28;20074;-68
2022/06/29 00:18:42;;;;;;;;;;;;;;;17.86;29.59;95569.78;5042721;28;19975;-69
2022/06/29 00:21:07;;;;;;;;;;;;;;;17.85;29.34;95577.03;5046640;28;19995;-68
2022/06/29 00:23:33;;;;;;;;;;;;;;;17.91;29.04;95572.59;5045966;28;19992;-69
2022/06/29 00:25:58;;;;;;;;;;;;;;;17.95;29.13;95567.59;5046134;28;20327;-69
2022/06/29 00:28:24;;;;;;;;;;;;;;;17.83;29.39;95567.50;5046706;28;20372;-69
2022/06/29 00:30:50;;;;;;;;;;;;;;;17.93;28.82;95567.81;5046058;28;20015;-69
2022/06/29 00:33:15;;;;;;;;;;;;;;;17.90;28.75;95569.09;5044599;28;19967;-68
2022/06/29 00:35:40;;;;;;;;;;;;;;;17.88;28.90;95565.00;5046484;28;20364;-68
2022/06/29 00:38:06;;;;;;;;;;;;;;;17.97;29.13;95568.19;5045675;28;20225;-68
2022/06/29 00:40:31;;;;;;;;;;;;;;;18.02;29.44;95566.47;5046277;28;20424;-69
2022/06/29 00:42:56;;;;;;;;;;;;;;;17.90;29.38;95562.88;5045765;28;20039;-69
2022/06/29 00:45:21;;;;;;;;;;;;;;;17.94;29.39;95565.97;5046048;28;19977;-69
2022/06/29 00:47:47;;;;;;;;;;;;;;;18.04;29.27;95566.22;5045886;28;19986;-69
2022/06/29 00:50:12;;;;;;;;;;;;;;;18.07;28.85;95564.94;5045723;28;19972;-68
2022/06/29 00:52:38;;;;;;;;;;;;;;;18.02;29.30;95555.69;5046247;28;20502;-67
2022/06/29 00:55:05;;;;;;;;;;;;;;;17.91;30.58;95556.44;5045209;28;20595;-68
2022/06/29 00:57:31;;;;;;;;;;;;;;;17.73;29.71;95557.25;5051578;28;19982;-69
2022/06/29 00:59:57;;;;;;;;;;;;;;;17.79;29.27;95551.78;5045865;28;20638;-68
2022/06/29 01:02:23;;;;;;;;;;;;;;;17.78;29.34;95550.16;5045224;28;19996;-69
2022/06/29 01:04:48;;;;;;;;;;;;;;;17.77;29.01;95542.31;5046270;28;19968;-69
2022/06/29 01:07:17;;;;;;;;;;;;;;;17.74;29.30;95543.56;5044986;28;19989;-69
2022/06/29 01:09:43;;;;;;;;;;;;;;;17.76;29.36;95540.66;5045484;28;19962;-69
2022/06/29 01:12:08;;;;;;;;;;;;;;;17.76;28.74;95543.34;5045207;28;19989;-69
2022/06/29 01:14:33;;;;;;;;;;;;;;;17.80;28.50;95542.69;5045178;28;20474;-68
2022/06/29 01:16:59;;;;;;;;;;;;;;;17.79;28.49;95540.22;5047284;28;20075;-68
2022/06/29 01:19:24;;;;;;;;;;;;;;;17.70;28.91;95541.56;5045708;28;20287;-68
2022/06/29 01:21:50;;;;;;;;;;;;;;;17.58;29.16;95544.19;5045531;28;19988;-69
2022/06/29 01:24:15;;;;;;;;;;;;;;;17.59;29.16;95549.34;5044770;28;20696;-68
2022/06/29 01:26:41;;;;;;;;;;;;;;;17.61;28.67;95541.06;5041139;28;19983;-69
2022/06/29 01:29:06;;;;;;;;;;;;;;;17.57;29.19;95547.94;5041326;28;20024;-68
2022/06/29 01:31:31;;;;;;;;;;;;;;;17.45;29.10;95548.69;5045039;28;19994;-69
2022/06/29 01:33:56;;;;;;;;;;;;;;;17.34;30.79;95544.03;5045970;28;19966;-69
2022/06/29 01:36:22;;;;;;;;;;;;;;;17.37;29.80;95540.91;5043519;28;19995;-69
2022/06/29 01:38:47;;;;;;;;;;;;;;;17.28;30.01;95537.69;5044542;28;19992;-69
2022/06/29 01:41:13;;;;;;;;;;;;;;;17.19;30.87;95541.69;5045365;28;20391;-69
2022/06/29 01:43:38;;;;;;;;;;;;;;;16.74;31.48;95544.34;5044687;28;20308;-69
2022/06/29 01:46:03;;;;;;;;;;;;;;;16.59;31.97;95543.84;5045115;28;19965;-68
2022/06/29 01:48:28;;;;;;;;;;;;;;;16.54;31.21;95541.81;5044753;28;20027;-68
2022/06/29 01:50:54;;;;;;;;;;;;;;;16.66;32.04;95546.47;5044814;28;20273;-69
2022/06/29 01:53:19;;;;;;;;;;;;;;;16.25;34.47;95536.00;5045407;28;19972;-68
2022/06/29 01:55:44;;;;;;;;;;;;;;;16.30;32.47;95536.16;5048001;28;19985;-69
2022/06/29 01:58:10;;;;;;;;;;;;;;;16.06;33.11;95532.38;5052437;28;19967;-69
2022/06/29 02:00:35;;;;;;;;;;;;;;;15.90;36.83;95539.91;5044423;28;20268;-69
2022/06/29 02:03:00;;;;;;;;;;;;;;;15.92;33.83;95531.63;5044510;28;19997;-69
2022/06/29 02:05:26;;;;;;;;;;;;;;;15.93;34.11;95526.06;5044406;28;20558;-69
2022/06/29 02:07:51;;;;;;;;;;;;;;;15.99;32.24;95524.38;5044329;28;19985;-69
2022/06/29 02:10:16;;;;;;;;;;;;;;;15.94;33.52;95522.31;5043797;28;20003;-69
2022/06/29 02:12:41;;;;;;;;;;;;;;;16.34;32.49;95532.00;5044649;28;19965;-69
2022/06/29 02:15:07;;;;;;;;;;;;;;;16.60;32.09;95518.63;5044037;28;20064;-69
2022/06/29 02:17:32;;;;;;;;;;;;;;;16.85;31.88;95515.94;5044603;28;20341;-69
2022/06/29 02:19:58;;;;;;;;;;;;;;;16.99;30.81;95516.63;5043491;28;19990;-69
2022/06/29 02:22:23;;;;;;;;;;;;;;;17.06;30.99;95515.75;5043839;28;19991;-69
2022/06/29 02:24:48;;;;;;;;;;;;;;;17.30;31.14;95506.00;5044099;28;19968;-69
2022/06/29 02:27:14;;;;;;;;;;;;;;;17.33;31.19;95496.66;5043736;28;19998;-69
2022/06/29 02:29:39;;;;;;;;;;;;;;;17.45;30.72;95494.88;5044265;28;19967;-69
2022/06/29 02:34:48;;;;;;;;;;;;;;;17.70;30.16;95499.31;5043421;28;20472;-68
2022/06/29 02:37:14;;;;;;;;;;;;;;;17.79;30.11;95492.56;5044108;28;19992;-69
2022/06/29 02:39:39;;;;;;;;;;;;;;;17.78;30.14;95490.13;5044244;28;19986;-68
2022/06/29 02:42:04;;;;;;;;;;;;;;;17.90;29.80;95492.88;5044210;28;20389;-69
2022/06/29 02:44:30;;;;;;;;;;;;;;;17.77;29.66;95499.22;5044144;28;19959;-69
2022/06/29 02:46:55;;;;;;;;;;;;;;;17.86;29.70;95500.59;5043913;28;19988;-69
2022/06/29 02:49:20;;;;;;;;;;;;;;;17.85;30.39;95501.63;5044052;28;20402;-69
2022/06/29 02:51:46;;;;;;;;;;;;;;;17.88;29.77;95489.59;5044077;28;19982;-68
2022/06/29 02:54:11;;;;;;;;;;;;;;;17.93;29.24;95497.81;5043338;28;19977;-69
2022/06/29 02:56:36;;;;;;;;;;;;;;;17.87;29.29;95504.94;5043219;28;20385;-69
2022/06/29 02:59:01;;;;;;;;;;;;;;;18.01;30.02;95497.50;5043561;28;20004;-69
2022/06/29 03:01:26;;;;;;;;;;;;;;;17.80;29.73;95498.78;5044005;28;20463;-69
2022/06/29 03:03:52;;;;;;;;;;;;;;;17.90;30.50;95498.25;5043461;28;20404;-69
2022/06/29 03:06:17;;;;;;;;;;;;;;;17.73;29.96;95492.66;5043529;28;20275;-69
2022/06/29 03:08:42;;;;;;;;;;;;;;;17.75;30.79;95495.97;5043403;28;19973;-69
2022/06/29 03:11:07;;;;;;;;;;;;;;;17.82;29.73;95490.47;5043650;28;19997;-69
2022/06/29 03:13:33;;;;;;;;;;;;;;;17.69;31.23;95491.47;5043727;28;19965;-69
2022/06/29 03:15:58;;;;;;;;;;;;;;;17.63;30.56;95495.88;5043688;28;19983;-68
2022/06/29 03:18:23;;;;;;;;;;;;;;;17.54;32.42;95498.06;5043153;28;19999;-69
2022/06/29 03:20:48;;;;;;;;;;;;;;;17.40;32.25;95479.38;5043556;28;19965;-69
2022/06/29 03:23:14;;;;;;;;;;;;;;;17.35;31.97;95486.50;5042987;28;20027;-68
2022/06/29 03:25:39;;;;;;;;;;;;;;;17.39;31.88;95479.63;5044015;28;20013;-68
2022/06/29 03:28:04;;;;;;;;;;;;;;;17.35;31.28;95481.13;5043023;28;19992;-68
2022/06/29 03:30:29;;;;;;;;;;;;;;;17.04;30.96;95486.38;5043495;28;19986;-68
2022/06/29 03:32:55;;;;;;;;;;;;;;;17.09;31.20;95474.94;5060515;28;20032;-69
2022/06/29 03:35:21;;;;;;;;;;;;;;;17.19;31.47;95477.97;5047670;28;20300;-69
2022/06/29 03:37:46;;;;;;;;;;;;;;;17.28;31.04;95479.31;5047232;28;20039;-70
2022/06/29 03:40:11;;;;;;;;;;;;;;;17.19;33.25;95477.97;5047257;28;19988;-70
2022/06/29 03:42:36;;;;;;;;;;;;;;;17.24;32.96;95478.13;5047157;28;19993;-69
2022/06/29 03:45:02;;;;;;;;;;;;;;;17.19;30.58;95479.81;5048162;28;20249;-69
2022/06/29 03:47:27;;;;;;;;;;;;;;;17.15;31.47;95482.16;5047088;28;20056;-70
2022/06/29 03:49:53;;;;;;;;;;;;;;;17.25;33.63;95482.47;5047176;28;20393;-69
2022/06/29 03:52:18;;;;;;;;;;;;;;;16.88;31.91;95477.03;5047237;28;20005;-69
2022/06/29 03:54:43;;;;;;;;;;;;;;;17.19;32.46;95472.59;5047363;28;19993;-69
2022/06/29 03:57:08;;;;;;;;;;;;;;;17.21;30.83;95465.13;5052095;28;19969;-69
2022/06/29 03:59:33;;;;;;;;;;;;;;;17.21;30.65;95467.00;5047031;28;19996;-70
2022/06/29 04:01:59;;;;;;;;;;;;;;;17.23;31.49;95473.78;5046097;28;19985;-70
2022/06/29 04:04:24;;;;;;;;;;;;;;;17.27;32.85;95474.97;5047466;28;20017;-70
2022/06/29 04:06:49;;;;;;;;;;;;;;;16.50;31.60;95476.97;5046651;28;19988;-69
2022/06/29 04:09:14;;;;;;;;;;;;;;;16.88;33.17;95471.63;5047369;28;20061;-70
2022/06/29 04:11:49;;;;;;;;;;;;;;;17.12;31.15;95474.53;5046671;28;20030;-69
2022/06/29 04:14:18;;;;;;;;;;;;;;;16.62;32.29;95470.84;5046833;28;19971;-69
2022/06/29 04:16:43;;;;;;;;;;;;;;;16.81;35.24;95471.72;5046821;28;20067;-69
2022/06/29 04:19:08;;;;;;;;;;;;;;;16.78;31.98;95466.78;5047042;28;20076;-69
2022/06/29 04:21:34;;;;;;;;;;;;;;;16.57;33.33;95468.00;5046436;28;20062;-69
2022/06/29 04:23:59;;;;;;;;;;;;;;;16.64;31.85;95468.75;5047250;28;20262;-69
2022/06/29 04:26:24;;;;;;;;;;;;;;;16.96;33.36;95473.25;5046590;28;20072;-69
2022/06/29 04:28:49;;;;;;;;;;;;;;;17.27;33.07;95461.53;5046778;28;19975;-69
2022/06/29 04:31:15;;;;;;;;;;;;;;;17.52;32.58;95463.31;5046591;28;20044;-70
2022/06/29 04:33:40;;;;;;;;;;;;;;;17.78;33.22;95464.00;5046226;28;20013;-69
2022/06/29 04:36:05;;;;;;;;;;;;;;;17.97;31.09;95465.84;5046230;28;19995;-70
2022/06/29 04:38:30;;;;;;;;;;;;;;;18.22;30.89;95468.38;5045876;28;19994;-70
2022/06/29 04:40:55;;;;;;;;;;;;;;;18.22;30.80;95462.19;5046375;28;20299;-70
2022/06/29 04:43:21;;;;;;;;;;;;;;;18.22;31.30;95463.00;5045252;28;19993;-69
2022/06/29 04:48:30;;;;;;;;;;;;;;;18.35;31.29;95466.56;5044762;28;20543;-70
2022/06/29 04:50:55;;;;;;;;;;;;;;;18.44;30.97;95451.69;5046009;28;19990;-69
2022/06/29 04:53:20;;;;;;;;;;;;;;;18.62;30.75;95463.44;5045683;28;20448;-70
2022/06/29 04:55:45;;;;;;;;;;;;;;;18.53;31.63;95447.56;5043101;28;20488;-70
2022/06/29 04:58:11;;;;;;;;;;;;;;;18.50;31.30;95449.94;5045170;28;19963;-69
2022/06/29 05:00:36;;;;;;;;;;;;;;;18.42;31.31;95448.38;5046009;28;20355;-69
2022/06/29 05:03:01;;;;;;;;;;;;;;;18.48;31.36;95455.53;5045788;28;20047;-70
2022/06/29 05:05:26;;;;;;;;;;;;;;;18.56;31.21;95439.03;5045594;28;19962;-69
2022/06/29 05:07:52;;;;;;;;;;;;;;;18.44;31.00;95444.41;5045709;28;19988;-69
2022/06/29 05:10:17;;;;;;;;;;;;;;;18.57;31.43;95450.63;5044870;28;20380;-70
2022/06/29 05:12:42;;;;;;;;;;;;;;;18.59;31.05;95450.44;5045850;28;20006;-69
2022/06/29 05:15:08;;;;;;;;;;;;;;;18.53;30.91;95447.56;5044697;28;20019;-69
2022/06/29 05:17:36;;;;;;;;;;;;;;;18.61;31.61;95456.41;5045925;28;20648;-69
2022/06/29 05:20:04;;;;;;;;;;;;;;;18.63;31.10;95451.63;5044913;28;19984;-70
2022/06/29 05:22:29;;;;;;;;;;;;;;;18.35;30.62;95453.88;5045076;28;20661;-69
2022/06/29 05:24:55;;;;;;;;;;;;;;;18.40;30.74;95445.13;5045591;28;19972;-69
2022/06/29 05:27:20;;;;;;;;;;;;;;;18.67;30.65;95442.00;5045115;28;19982;-69
2022/06/29 05:29:45;;;;;;;;;;;;;;;18.62;30.55;95441.84;5045197;28;20466;-69
2022/06/29 05:32:10;;;;;;;;;;;;;;;18.74;30.63;95441.88;5045164;28;20406;-69
2022/06/29 05:34:36;;;;;;;;;;;;;;;18.88;30.22;95443.28;5044814;28;20352;-69
2022/06/29 05:37:02;;;;;;;;;;;;;;;18.88;31.06;95434.34;5044553;28;19999;-69
2022/06/29 05:39:27;;;;;;;;;;;;;;;18.99;30.37;95435.41;5044251;28;20265;-70
2022/06/29 05:41:52;;;;;;;;;;;;;;;19.06;30.27;95434.22;5044026;28;19986;-70
2022/06/29 05:44:17;;;;;;;;;;;;;;;19.05;30.76;95437.16;5044541;28;19973;-70
2022/06/29 05:46:43;;;;;;;;;;;;;;;19.14;30.14;95441.13;5044420;28;20126;-70
2022/06/29 05:49:08;;;;;;;;;;;;;;;19.12;30.07;95437.84;5044110;28;20000;-70
2022/06/29 05:51:33;;;;;;;;;;;;;;;19.01;30.27;95444.91;5044243;28;20085;-69
2022/06/29 05:53:58;;;;;;;;;;;;;;;19.04;30.00;95438.22;5042630;28;19971;-70
2022/06/29 05:56:24;;;;;;;;;;;;;;;19.18;30.26;95441.47;5045538;28;19966;-70
2022/06/29 05:58:49;;;;;;;;;;;;;;;19.32;29.89;95434.81;5043844;28;20353;-69
2022/06/29 06:01:14;;;;;;;;;;;;;;;19.36;29.98;95439.69;5041617;28;19968;-69
2022/06/29 06:03:39;;;;;;;;;;;;;;;19.45;30.34;95436.38;5041183;28;20287;-69
2022/06/29 06:06:05;;;;;;;;;;;;;;;19.32;29.76;95434.81;5040714;28;20215;-69
2022/06/29 06:08:30;;;;;;;;;;;;;;;19.52;29.56;95440.84;5043146;28;20545;-69
2022/06/29 06:10:55;;;;;;;;;;;;;;;19.71;29.38;95438.75;5042201;28;19985;-70
2022/06/29 06:13:21;;;;;;;;;;;;;;;19.77;29.42;95436.97;5043752;28;20582;-70
2022/06/29 06:15:46;;;;;;;;;;;;;;;19.92;29.87;95442.66;5042382;28;19987;-70
2022/06/29 06:18:11;;;;;;;;;;;;;;;19.98;29.30;95443.59;5043504;28;19967;-70
2022/06/29 06:20:36;;;;;;;;;;;;;;;20.06;30.13;95443.19;5041705;28;20005;-70
2022/06/29 06:23:02;;;;;;;;;;;;;;;20.06;29.83;95445.09;5042153;28;20426;-69
2022/06/29 06:25:27;;;;;;;;;;;;;;;20.14;29.75;95443.88;5043488;28;20633;-70
2022/06/29 06:27:52;;;;;;;;;;;;;;;20.32;29.26;95446.34;5041111;28;20333;-69
2022/06/29 06:30:17;;;;;;;;;;;;;;;20.49;28.97;95448.22;5033403;28;20020;-70
2022/06/29 06:32:43;;;;;;;;;;;;;;;20.57;29.16;95455.91;5043833;28;20506;-70
2022/06/29 06:35:08;;;;;;;;;;;;;;;20.64;29.48;95449.56;5041085;28;19975;-69
2022/06/29 06:37:33;;;;;;;;;;;;;;;20.67;30.01;95449.88;5042610;28;20238;-69
2022/06/29 06:42:43;;;;;;;;;;;;;;;20.89;30.57;95441.00;5042068;28;20104;-70
2022/06/29 06:45:10;;;;;;;;;;;;;;;21.01;30.07;95454.44;5042027;28;20531;-69
2022/06/29 06:47:35;;;;;;;;;;;;;;;21.13;30.20;95451.63;5041309;28;20042;-70
2022/06/29 06:50:00;;;;;;;;;;;;;;;21.12;30.97;95450.78;5041472;28;19957;-69
2022/06/29 06:52:25;;;;;;;;;;;;;;;21.18;29.61;95451.66;5042683;28;20011;-68
2022/06/29 06:54:51;;;;;;;;;;;;;;;21.18;29.09;95457.09;5040115;28;20007;-69
2022/06/29 06:57:16;;;;;;;;;;;;;;;21.06;28.55;95451.81;5044007;28;19983;-69
2022/06/29 06:59:41;;;;;;;;;;;;;;;21.11;29.35;95453.78;5042040;28;19982;-70
2022/06/29 07:02:06;;;;;;;;;;;;;;;21.18;29.29;95442.75;5041646;28;20030;-70
2022/06/29 07:04:31;;;;;;;;;;;;;;;21.24;30.00;95444.44;5039805;28;19949;-70
2022/06/29 07:06:57;;;;;;;;;;;;;;;21.29;30.91;95447.25;5037955;28;20001;-70
2022/06/29 07:09:22;;;;;;;;;;;;;;;21.21;30.67;95437.63;5038289;28;20592;-70
2022/06/29 07:11:47;;;;;;;;;;;;;;;21.23;29.81;95437.41;5039865;28;20441;-70
2022/06/29 07:14:12;;;;;;;;;;;;;;;21.17;29.81;95441.13;5035799;28;20030;-70
2022/06/29 07:16:38;;;;;;;;;;;;;;;21.22;29.64;95438.47;5034981;28;19953;-69
2022/06/29 07:19:03;;;;;;;;;;;;;;;21.33;29.79;95440.28;5035433;28;20045;-70
2022/06/29 07:21:29;;;;;;;;;;;;;;;21.46;30.54;95449.09;5037784;28;20021;-70
2022/06/29 07:23:58;;;;;;;;;;;;;;;21.51;30.69;95441.84;5036553;28;20300;-70
2022/06/29 07:26:23;;;;;;;;;;;;;;;21.51;30.46;95449.97;5038412;28;19974;-70
2022/06/29 07:28:48;;;;;;;;;;;;;;;21.37;30.51;95443.28;5034842;28;20063;-69
2022/06/29 07:31:14;;;;;;;;;;;;;;;21.38;30.67;95453.88;5039953;28;20022;-70
2022/06/29 07:33:39;;;;;;;;;;;;;;;21.24;29.81;95449.84;5032559;28;20026;-70
2022/06/29 07:36:04;;;;;;;;;;;;;;;21.19;29.92;95444.38;5031948;28;20056;-70
2022/06/29 07:38:29;;;;;;;;;;;;;;;21.22;30.70;95452.00;5034584;28;19989;-70
2022/06/29 07:40:55;;;;;;;;;;;;;;;21.26;30.35;95445.03;5043255;28;20064;-69
2022/06/29 07:43:20;;;;;;;;;;;;;;;21.35;30.11;95448.16;5043886;28;20028;-69
2022/06/29 07:45:46;;;;;;;;;;;;;;;21.31;30.17;95447.00;5033415;28;19995;-70
2022/06/29 07:48:11;;;;;;;;;;;;;;;21.37;30.10;95446.00;5039305;28;20429;-70
2022/06/29 07:50:36;;;;;;;;;;;;;;;21.36;30.76;95450.59;5034162;28;20018;-69
2022/06/29 07:53:02;;;;;;;;;;;;;;;21.36;30.20;95450.59;5032712;28;20357;-69
2022/06/29 07:55:27;;;;;;;;;;;;;;;21.35;30.77;95453.56;5039550;28;20011;-69
2022/06/29 07:57:52;;;;;;;;;;;;;;;21.35;30.64;95443.53;5040693;28;19958;-69
2022/06/29 08:00:18;;;;;;;;;;;;;;;21.32;30.76;95444.06;5037596;28;20018;-69
2022/06/29 08:02:43;;;;;;;;;;;;;;;21.36;32.44;95442.47;5034443;28;19984;-69
2022/06/29 08:05:09;;;;;;;;;;;;;;;21.41;31.01;95449.81;5036759;28;19950;-70
2022/06/29 08:07:34;;;;;;;;;;;;;;;21.44;30.70;95454.75;5032553;28;20079;-70
2022/06/29 08:10:00;;;;;;;;;;;;;;;21.45;31.27;95448.25;5033206;28;19948;-70
2022/06/29 08:12:25;;;;;;;;;;;;;;;21.46;31.14;95454.50;5034084;28;19977;-70
2022/06/29 08:14:50;;;;;;;;;;;;;;;21.59;31.33;95453.28;5035774;28;20667;-70
2022/06/29 08:17:15;;;;;;;;;;;;;;;21.70;31.02;95456.94;5038632;28;20493;-70
2022/06/29 08:19:41;;;;;;;;;;;;;;;21.75;30.61;95451.56;5039198;28;19981;-70
2022/06/29 08:22:06;;;;;;;;;;;;;;;21.89;30.25;95452.81;5040347;28;19978;-69
2022/06/29 08:24:31;;;;;;;;;;;;;;;21.95;30.63;95450.16;5039440;28;20228;-70
2022/06/29 08:26:56;;;;;;;;;;;;;;;22.02;30.77;95445.38;5040959;28;20015;-70
2022/06/29 08:29:21;;;;;;;;;;;;;;;22.15;30.57;95441.44;5036657;28;20486;-70
2022/06/29 08:31:47;;;;;;;;;;;;;;;22.25;29.71;95437.97;5041184;28;20245;-70
2022/06/29 08:34:31;;;;;;;;;;;;;;;22.34;29.85;95436.47;5039777;28;20370;-70
2022/06/29 08:36:56;;;;;;;;;;;;;;;22.49;30.58;95437.63;5030392;28;19968;-70
2022/06/29 08:39:21;;;;;;;;;;;;;;;22.55;30.46;95439.34;5037682;28;19976;-69
2022/06/29 08:41:47;;;;;;;;;;;;;;;22.60;31.13;95439.38;5033733;28;20638;-70
2022/06/29 08:44:12;;;;;;;;;;;;;;;22.75;30.59;95433.25;5039990;28;19965;-70
2022/06/29 08:46:37;;;;;;;;;;;;;;;22.99;29.21;95434.75;5036171;28;20405;-70
2022/06/29 08:49:03;;;;;;;;;;;;;;;23.06;29.18;95440.75;5035528;28;20037;-70
2022/06/29 08:51:31;;;;;;;;;;;;;;;23.23;28.91;95439.78;5023265;28;19998;-70
2022/06/29 08:53:56;;;;;;;;;;;;;;;23.35;29.68;95440.38;5034768;28;20337;-69
2022/06/29 08:56:21;;;;;;;;;;;;;;;23.38;29.15;95445.28;5032569;28;19939;-70
2022/06/29 08:58:47;;;;;;;;;;;;;;;23.47;28.36;95440.16;5031987;28;20292;-70
2022/06/29 09:01:13;;;;;;;;;;;;;;;23.27;28.92;95449.03;5036604;28;20492;-70
2022/06/29 09:03:39;;;;;;;;;;;;;;;23.53;29.17;95449.16;5039704;28;19961;-70
2022/06/29 09:06:06;;;;;;;;;;;;;;;23.62;28.55;95450.25;5028581;28;20444;-71
2022/06/29 09:08:31;;;;;;;;;;;;;;;23.71;29.74;95445.13;5033054;28;19966;-71
2022/06/29 09:10:56;;;;;;;;;;;;;;;23.73;28.62;95453.00;5021218;28;20441;-71
2022/06/29 09:13:22;;;;;;;;;;;;;;;23.84;28.46;95451.16;5027127;28;20250;-70
2022/06/29 09:15:47;;;;;;;;;;;;;;;23.91;28.45;95449.84;5032547;28;20466;-70
2022/06/29 09:18:31;;;;;;;;;;;;;;;24.04;28.79;95453.91;5038389;28;19965;-71
2022/06/29 09:20:57;;;;;;;;;;;;;;;24.18;28.67;95450.69;5039250;28;19968;-70
2022/06/29 09:23:22;;;;;;;;;;;;;;;24.42;28.53;95448.28;5038787;28;19975;-70
2022/06/29 09:25:48;;;;;;;;;;;;;;;24.56;29.25;95445.84;5025931;28;20042;-71
2022/06/29 09:28:23;;;;;;;;;;;;;;;24.68;27.30;95445.53;5028815;28;19961;-71
2022/06/29 09:30:49;;;;;;;;;;;;;;;24.58;28.27;95454.53;5031188;28;19957;-71
2022/06/29 09:33:14;;;;;;;;;;;;;;;24.62;27.85;95454.81;5034688;28;19958;-71
2022/06/29 09:35:39;;;;;;;;;;;;;;;24.77;28.27;95453.13;5037202;28;20653;-71
2022/06/29 09:38:18;;;;;;;;;;;;;;;24.92;27.44;95455.88;5038388;28;20236;-71
2022/06/29 09:40:57;;;;;;;;;;;;;;;24.84;27.33;95453.69;5038703;28;20033;-71
2022/06/29 09:43:22;;;;;;;;;;;;;;;25.02;28.00;95451.50;5039036;28;19970;-71
2022/06/29 09:45:48;;;;;;;;;;;;;;;25.02;27.27;95448.78;5038630;28;19959;-70
2022/06/29 09:48:14;;;;;;;;;;;;;;;24.89;27.21;95453.69;5035874;28;19963;-71
2022/06/29 09:50:39;;;;;;;;;;;;;;;24.97;27.55;95455.06;5037711;28;19986;-71
2022/06/29 09:53:04;;;;;;;;;;;;;;;24.90;28.97;95447.19;5036676;28;19968;-71
2022/06/29 09:55:29;;;;;;;;;;;;;;;24.93;27.67;95445.81;5038704;28;20461;-71
2022/06/29 09:57:55;;;;;;;;;;;;;;;24.95;27.97;95443.63;5032975;28;19969;-71
2022/06/29 10:03:07;;;;;;;;;;;;;;;25.04;28.73;95439.25;5036620;28;20335;-70
2022/06/29 10:06:06;;;;;;;;;;;;;;;25.02;28.32;95443.34;5038530;28;19937;-71
2022/06/29 10:08:25;;;;;;;;;;;;;;;25.13;27.57;95436.78;5030830;28;20500;-70
2022/06/29 10:10:52;;;;;;;;;;;;;;;25.21;27.45;95440.81;5039446;28;19958;-70
2022/06/29 10:13:40;;;;;;;;;;;;;;;25.29;28.46;95437.53;5034706;28;19946;-70
2022/06/29 10:16:17;;;;;;;;;;;;;;;25.34;27.76;95433.97;5035303;28;20423;-71
2022/06/29 10:19:01;;;;;;;;;;;;;;;25.25;29.72;95430.22;5028817;28;19952;-70
2022/06/29 10:21:27;;;;;;;;;;;;;;;25.24;29.25;95432.09;5038059;28;19950;-71
2022/06/29 10:23:53;;;;;;;;;;;;;;;25.26;28.54;95431.84;5039252;28;19956;-71
2022/06/29 10:26:32;;;;;;;;;;;;;;;25.13;29.28;95436.78;5037606;28;20687;-71
2022/06/29 10:29:09;;;;;;;;;;;;;;;25.08;29.10;95428.59;5037788;28;19939;-70
2022/06/29 10:32:00;;;;;;;;;;;;;;;25.19;28.84;95438.38;5037016;28;19960;-70
2022/06/29 10:34:31;;;;;;;;;;;;;;;25.39;28.06;95438.59;5035740;28;19959;-71
2022/06/29 10:37:02;;;;;;;;;;;;;;;25.85;27.24;95437.56;5037474;28;20229;-70
2022/06/29 10:39:27;;;;;;;;;;;;;;;26.40;26.40;95436.69;5030760;28;20029;-71
2022/06/29 10:44:54;;;;;;;;;;;;;;;27.61;27.12;95423.47;5032151;28;19960;-71
2022/06/29 10:47:23;;;;;;;;;;;;;;;28.10;26.33;95417.88;5033463;28;19962;-71
2022/06/29 10:49:48;;;;;;;;;;;;;;;28.53;24.00;95425.97;5037790;28;19924;-71
2022/06/29 10:52:13;;;;;;;;;;;;;;;28.92;22.47;95420.38;5037620;28;20001;-71
2022/06/29 10:54:39;;;;;;;;;;;;;;;29.14;25.11;95427.09;5032758;28;19931;-71
2022/06/29 10:57:04;;;;;;;;;;;;;;;29.56;24.32;95422.44;5041953;28;20092;-70
2022/06/29 10:59:30;;;;;;;;;;;;;;;29.33;24.95;95423.50;5034418;28;20011;-70
2022/06/29 11:02:11;;;;;;;;;;;;;;;29.46;21.82;95419.91;5039636;28;19935;-70
2022/06/29 11:04:36;;;;;;;;;;;;;;;29.46;24.55;95419.91;5037326;28;19924;-70
2022/06/29 11:12:33;;;;;;;;;;;;;;;29.76;22.95;95414.09;5035458;28;20132;-70
2022/06/29 11:17:46;;;;;;;;;;;;;;;29.48;23.91;95416.88;5028366;28;20314;-71
2022/06/29 11:20:20;;;;;;;;;;;;;;;29.41;23.26;95406.31;5033617;28;19924;-71
2022/06/29 11:22:49;;;;;;;;;;;;;;;29.47;22.60;95407.03;5030570;28;19962;-71
2022/06/29 11:25:14;;;;;;;;;;;;;;;29.56;22.53;95414.22;5036845;28;19956;-71
2022/06/29 11:27:40;;;;;;;;;;;;;;;29.58;24.78;95407.63;5037715;28;20353;-70
2022/06/29 11:30:06;;;;;;;;;;;;;;;29.69;23.19;95414.53;5035536;28;19967;-71
2022/06/29 11:32:49;;;;;;;;;;;;;;;29.52;22.44;95413.22;5035025;28;20394;-71
2022/06/29 11:35:18;;;;;;;;;;;;;;;29.34;23.93;95411.41;5036084;28;20764;-71
2022/06/29 11:37:47;;;;;;;;;;;;;;;29.57;23.48;95412.31;5036252;28;19937;-71
2022/06/29 11:40:12;;;;;;;;;;;;;;;28.68;24.83;95404.94;5036382;28;19951;-71
2022/06/29 11:45:21;;;;;;;;;;;;;;;28.68;24.05;95402.19;5036271;28;19986;-70
2022/06/29 11:47:50;;;;;;;;;;;;;;;28.56;25.24;95407.31;5036561;28;20383;-69
2022/06/29 11:50:15;;;;;;;;;;;;;;;28.98;24.84;95397.28;5036835;28;20421;-71
2022/06/29 11:52:44;;;;;;;;;;;;;;;28.98;24.32;95407.41;5037048;28;19975;-71
2022/06/29 11:55:09;;;;;;;;;;;;;;;29.20;25.20;95404.00;5039521;28;19975;-71
2022/06/29 11:57:34;;;;;;;;;;;;;;;28.82;25.53;95398.69;5042740;28;20434;-71
2022/06/29 12:00:08;;;;;;;;;;;;;;;28.72;26.21;95400.47;5042125;28;19996;-71
2022/06/29 12:02:34;;;;;;;;;;;;;;;29.02;25.76;95401.03;5039800;28;20477;-70
2022/06/29 12:05:00;;;;;;;;;;;;;;;28.98;25.77;95399.19;5041917;28;19955;-71
2022/06/29 12:07:25;;;;;;;;;;;;;;;28.89;26.35;95394.41;5041328;28;19921;-71
2022/06/29 12:09:51;;;;;;;;;;;;;;;29.07;25.29;95391.91;5042319;28;19933;-71
2022/06/29 12:12:17;;;;;;;;;;;;;;;28.89;25.85;95393.63;5041646;28;20095;-71
2022/06/29 12:14:42;;;;;;;;;;;;;;;29.40;25.92;95383.56;5042384;28;20444;-71
2022/06/29 12:17:09;;;;;;;;;;;;;;;29.71;25.59;95379.41;5045641;28;19960;-71
2022/06/29 12:19:34;;;;;;;;;;;;;;;29.95;24.20;95383.78;5039334;28;20008;-71
2022/06/29 12:22:00;;;;;;;;;;;;;;;29.91;24.40;95380.84;5036588;28;20092;-71
2022/06/29 12:24:25;;;;;;;;;;;;;;;29.89;23.43;95371.31;5037237;28;19982;-71
2022/06/29 12:26:50;;;;;;;;;;;;;;;29.97;23.33;95372.50;5038041;28;20080;-70
2022/06/29 12:29:16;;;;;;;;;;;;;;;30.27;24.03;95373.72;5039348;28;19921;-71
2022/06/29 12:31:42;;;;;;;;;;;;;;;30.87;22.34;95370.84;5040078;28;20469;-70
2022/06/29 12:34:07;;;;;;;;;;;;;;;31.40;22.02;95365.50;5039963;28;19955;-70
2022/06/29 12:36:32;;;;;;;;;;;;;;;30.87;22.49;95367.28;5040051;28;19936;-70
2022/06/29 12:38:58;;;;;;;;;;;;;;;31.05;22.83;95377.19;5039769;28;20006;-70
2022/06/29 12:41:24;;;;;;;;;;;;;;;31.08;22.72;95371.06;5041085;28;19966;-70
2022/06/29 12:43:49;;;;;;;;;;;;;;;31.05;22.35;95368.97;5033981;28;19929;-70
2022/06/29 12:46:14;;;;;;;;;;;;;;;30.78;22.64;95361.72;5038370;28;20301;-70
2022/06/29 12:48:39;;;;;;;;;;;;;;;30.68;22.23;95366.38;5039970;28;19929;-70
2022/06/29 12:51:06;;;;;;;;;;;;;;;30.81;22.28;95366.59;5039578;28;19929;-70
2022/06/29 12:53:31;;;;;;;;;;;;;;;31.15;22.59;95362.38;5033942;28;20017;-71
2022/06/29 12:55:57;;;;;;;;;;;;;;;30.62;22.05;95364.06;5038052;28;19960;-70
2022/06/29 12:58:22;;;;;;;;;;;;;;;30.24;24.47;95365.31;5039484;28;20106;-70
2022/06/29 13:00:48;;;;;;;;;;;;;;;29.38;25.69;95361.16;5039269;28;19923;-70
2022/06/29 13:03:14;;;;;;;;;;;;;;;28.95;25.75;95367.75;5039413;28;20146;-70
2022/06/29 13:05:39;;;;;;;;;;;;;;;28.14;27.27;95362.28;5038285;28;19916;-70
2022/06/29 13:08:04;;;;;;;;;;;;;;;28.18;27.21;95351.59;5036863;28;19949;-70